createdAt,value
2022-12-13T00:01:25.995Z,-3.40
2022-12-13T00:03:54.439Z,-3.40
2022-12-13T00:06:21.365Z,-3.40
2022-12-13T00:08:48.658Z,-3.50
2022-12-13T00:11:15.788Z,-3.50
2022-12-13T00:13:43.676Z,-3.50
2022-12-13T00:16:13.636Z,-3.60
2022-12-13T00:18:40.633Z,-3.50
2022-12-13T00:21:09.378Z,-3.50
2022-12-13T00:23:36.560Z,-3.60
2022-12-13T00:26:05.391Z,-3.50
2022-12-13T00:28:32.442Z,-3.60
2022-12-13T00:31:13.777Z,-3.50
2022-12-13T00:33:47.177Z,-3.20
2022-12-13T00:36:14.665Z,-3.40
2022-12-13T00:38:41.781Z,-3.60
2022-12-13T00:41:19.759Z,-3.60
2022-12-13T00:43:46.992Z,-3.60
2022-12-13T00:46:18.760Z,-3.60
2022-12-13T00:48:50.351Z,-3.60
2022-12-13T00:51:17.822Z,-3.60
2022-12-13T00:53:45.441Z,-3.70
2022-12-13T00:56:14.253Z,-3.70
2022-12-13T00:58:41.792Z,-3.70
2022-12-13T01:01:15.846Z,-3.70
2022-12-13T01:03:43.306Z,-3.70
2022-12-13T01:06:22.453Z,-3.70
2022-12-13T01:08:49.366Z,-3.70
2022-12-13T01:11:17.250Z,-3.70
2022-12-13T01:13:44.563Z,-3.80
2022-12-13T01:16:13.147Z,-3.80
2022-12-13T01:18:41.046Z,-3.80
2022-12-13T01:21:14.976Z,-3.80
2022-12-13T01:23:42.949Z,-3.80
2022-12-13T01:26:15.838Z,-3.90
2022-12-13T01:28:42.957Z,-3.40
2022-12-13T01:31:16.400Z,-3.90
2022-12-13T01:33:43.266Z,-3.90
2022-12-13T01:36:14.590Z,-3.90
2022-12-13T01:38:41.578Z,-3.90
2022-12-13T01:41:17.360Z,-3.60
2022-12-13T01:43:47.878Z,-4.00
2022-12-13T01:46:16.803Z,-4.00
2022-12-13T01:48:53.583Z,-4.00
2022-12-13T01:51:24.339Z,-4.00
2022-12-13T01:53:52.338Z,-4.00
2022-12-13T01:56:30.365Z,-4.00
2022-12-13T01:58:58.796Z,-4.00
2022-12-13T02:01:25.980Z,-4.00
2022-12-13T02:03:52.888Z,-4.00
2022-12-13T02:06:38.491Z,-4.00
2022-12-13T02:09:07.342Z,-4.00
2022-12-13T02:11:41.072Z,-4.00
2022-12-13T02:14:09.732Z,-4.00
2022-12-13T02:17:05.829Z,-4.00
2022-12-13T02:19:54.480Z,-4.00
2022-12-13T02:22:53.692Z,-4.00
2022-12-13T02:25:58.300Z,-4.10
2022-12-13T02:28:43.981Z,-4.10
2022-12-13T02:31:16.625Z,-4.10
2022-12-13T02:33:46.517Z,-4.20
2022-12-13T02:36:24.217Z,-4.20
2022-12-13T02:39:11.741Z,-4.20
2022-12-13T02:41:53.049Z,-4.20
2022-12-13T02:44:39.864Z,-4.20
2022-12-13T02:47:21.831Z,-4.20
2022-12-13T02:49:57.246Z,-4.30
2022-12-13T02:52:28.103Z,-4.30
2022-12-13T02:54:55.887Z,-4.30
2022-12-13T02:57:36.554Z,-4.30
2022-12-13T03:00:10.862Z,-4.30
2022-12-13T03:03:06.020Z,-4.30
2022-12-13T03:06:16.217Z,-4.30
2022-12-13T03:09:08.236Z,-4.30
2022-12-13T03:12:03.232Z,-4.10
2022-12-13T03:14:33.382Z,-4.40
2022-12-13T03:17:02.508Z,-4.40
2022-12-13T03:19:29.461Z,-4.40
2022-12-13T03:21:56.714Z,-4.40
2022-12-13T03:24:23.832Z,-4.40
2022-12-13T03:26:51.708Z,-4.40
2022-12-13T03:29:24.104Z,-4.40
2022-12-13T03:31:53.081Z,-4.40
2022-12-13T03:34:22.305Z,-4.50
2022-12-13T03:36:50.100Z,-4.50
2022-12-13T03:39:17.087Z,-4.50
2022-12-13T03:41:44.151Z,-4.50
2022-12-13T03:44:11.199Z,-4.50
2022-12-13T03:46:38.234Z,-4.50
2022-12-13T03:49:05.227Z,-4.50
2022-12-13T03:51:32.078Z,-4.50
2022-12-13T03:53:58.895Z,-4.50
2022-12-13T03:56:26.259Z,-4.50
2022-12-13T03:58:53.197Z,-4.50
2022-12-13T04:01:20.158Z,-4.50
2022-12-13T04:03:47.853Z,-4.50
2022-12-13T04:06:21.859Z,-4.50
2022-12-13T04:08:51.103Z,-4.50
2022-12-13T04:11:42.657Z,-4.50
2022-12-13T04:14:22.306Z,-4.50
2022-12-13T04:16:51.939Z,-4.50
2022-12-13T04:19:23.213Z,-4.50
2022-12-13T04:21:51.762Z,-4.50
2022-12-13T04:24:18.579Z,-4.50
2022-12-13T04:26:45.407Z,-4.50
2022-12-13T04:29:12.846Z,-4.50
2022-12-13T04:31:39.766Z,-4.50
2022-12-13T04:34:06.669Z,-4.50
2022-12-13T04:36:33.613Z,-4.50
2022-12-13T04:39:02.081Z,-4.50
2022-12-13T04:41:34.495Z,-4.50
2022-12-13T04:44:02.769Z,-4.50
2022-12-13T04:46:30.134Z,-4.50
2022-12-13T04:48:56.966Z,-4.20
2022-12-13T04:51:23.976Z,-4.50
2022-12-13T04:53:51.077Z,-4.50
2022-12-13T04:56:17.978Z,-4.50
2022-12-13T04:58:45.120Z,-4.50
2022-12-13T05:01:12.739Z,-4.40
2022-12-13T05:03:39.632Z,-3.90
2022-12-13T05:06:26.641Z,-4.40
2022-12-13T05:08:54.995Z,-4.40
2022-12-13T05:11:28.166Z,-4.40
2022-12-13T05:14:03.299Z,-4.40
2022-12-13T05:16:30.330Z,-4.50
2022-12-13T05:18:57.211Z,-4.50
2022-12-13T05:21:24.062Z,-4.50
2022-12-13T05:23:50.869Z,-4.50
2022-12-13T05:26:17.716Z,-4.50
2022-12-13T05:28:44.604Z,-4.50
2022-12-13T05:31:22.919Z,-4.50
2022-12-13T05:33:51.691Z,-4.50
2022-12-13T05:36:18.746Z,-4.50
2022-12-13T05:38:45.660Z,-4.60
2022-12-13T05:41:19.004Z,-4.60
2022-12-13T05:43:46.052Z,-4.50
2022-12-13T05:46:13.682Z,-4.60
2022-12-13T05:48:41.272Z,-4.60
2022-12-13T05:51:11.080Z,-4.60
2022-12-13T05:53:42.664Z,-4.60
2022-12-13T05:56:11.089Z,-4.60
2022-12-13T05:58:39.445Z,-4.60
2022-12-13T06:01:12.291Z,-4.60
2022-12-13T06:03:40.271Z,-4.50
2022-12-13T06:06:08.828Z,-4.50
2022-12-13T06:08:35.999Z,-4.50
2022-12-13T06:11:10.109Z,-4.30
2022-12-13T06:13:43.788Z,-4.40
2022-12-13T06:16:22.571Z,-4.40
2022-12-13T06:18:51.886Z,-4.40
2022-12-13T06:21:20.587Z,-4.40
2022-12-13T06:23:47.577Z,-4.50
2022-12-13T06:26:14.406Z,-4.50
2022-12-13T06:28:41.326Z,-4.50
2022-12-13T06:31:08.323Z,-4.60
2022-12-13T06:33:38.929Z,-4.60
2022-12-13T06:36:06.368Z,-4.70
2022-12-13T06:38:33.436Z,-4.70
2022-12-13T06:41:11.632Z,-4.70
2022-12-13T06:43:41.222Z,-4.70
2022-12-13T06:46:08.133Z,-4.80
2022-12-13T06:48:36.267Z,-4.70
2022-12-13T06:51:05.162Z,-4.70
2022-12-13T06:53:32.439Z,-4.70
2022-12-13T06:56:04.505Z,-4.70
2022-12-13T06:58:32.090Z,-4.60
2022-12-13T07:01:02.984Z,-4.60
2022-12-13T07:03:33.421Z,-4.50
2022-12-13T07:06:04.720Z,-4.50
2022-12-13T07:08:31.902Z,-4.40
2022-12-13T07:10:59.146Z,-4.30
2022-12-13T07:13:26.069Z,-3.90
2022-12-13T07:15:53.127Z,-4.20
2022-12-13T07:18:28.174Z,-4.10
2022-12-13T07:20:55.012Z,-4.10
2022-12-13T07:23:24.619Z,-4.00
2022-12-13T07:25:53.958Z,-4.00
2022-12-13T07:28:23.602Z,-3.90
2022-12-13T07:30:50.826Z,-3.90
2022-12-13T07:33:22.173Z,-3.40
2022-12-13T07:35:55.412Z,-4.10
2022-12-13T07:38:23.523Z,-3.20
2022-12-13T07:40:51.073Z,-3.50
2022-12-13T07:43:18.847Z,-3.40
2022-12-13T07:45:46.974Z,-3.40
2022-12-13T07:48:15.375Z,-3.40
2022-12-13T07:50:43.527Z,-3.00
2022-12-13T07:53:11.140Z,-3.30
2022-12-13T07:55:38.672Z,-3.30
2022-12-13T07:58:08.726Z,-3.30
2022-12-13T08:00:37.109Z,-3.20
2022-12-13T08:03:04.700Z,-3.20
2022-12-13T08:05:38.688Z,-3.10
2022-12-13T08:08:08.587Z,-3.20
2022-12-13T08:10:36.025Z,-3.10
2022-12-13T08:13:04.074Z,-3.20
2022-12-13T08:15:31.283Z,-3.20
2022-12-13T08:18:07.292Z,-3.30
2022-12-13T08:20:39.583Z,-2.90
2022-12-13T08:23:07.310Z,-3.20
2022-12-13T08:25:34.900Z,-2.90
2022-12-13T08:28:02.720Z,-2.90
2022-12-13T08:30:31.269Z,-2.90
2022-12-13T08:32:58.179Z,-3.10
2022-12-13T08:35:33.742Z,-3.20
2022-12-13T08:38:01.220Z,-3.20
2022-12-13T08:40:28.386Z,-3.20
2022-12-13T08:42:56.415Z,-2.60
2022-12-13T08:45:30.000Z,-3.10
2022-12-13T08:48:01.968Z,-2.80
2022-12-13T08:50:30.215Z,-2.80
2022-12-13T08:52:57.798Z,-2.70
2022-12-13T08:55:32.133Z,-2.70
2022-12-13T08:58:04.766Z,-3.00
2022-12-13T09:00:31.776Z,-3.00
2022-12-13T09:03:05.131Z,-2.70
2022-12-13T09:05:35.206Z,-2.90
2022-12-13T09:08:04.188Z,-2.30
2022-12-13T09:10:53.645Z,-2.80
2022-12-13T09:13:33.671Z,-2.60
2022-12-13T09:16:14.152Z,-2.40
2022-12-13T09:18:42.192Z,-2.70
2022-12-13T09:21:12.308Z,-3.10
2022-12-13T09:23:46.143Z,-2.70
2022-12-13T09:26:15.709Z,-2.70
2022-12-13T09:28:43.200Z,-2.30
2022-12-13T09:31:12.660Z,-2.60
2022-12-13T09:33:41.417Z,-2.60
2022-12-13T09:36:12.558Z,-2.50
2022-12-13T09:38:40.508Z,-2.50
2022-12-13T09:41:28.976Z,-2.10
2022-12-13T09:44:03.319Z,-2.20
2022-12-13T09:46:45.150Z,-2.10
2022-12-13T09:49:38.423Z,-2.30
2022-12-13T09:52:10.748Z,-2.30
2022-12-13T09:54:47.879Z,-2.00
2022-12-13T09:57:32.204Z,-2.20
2022-12-13T10:00:11.377Z,-1.90
2022-12-13T10:02:58.742Z,-2.20
2022-12-13T10:05:39.190Z,-1.80
2022-12-13T10:08:15.053Z,-2.00
2022-12-13T10:10:43.879Z,-1.90
2022-12-13T10:13:26.136Z,-1.90
2022-12-13T10:16:04.803Z,-1.80
2022-12-13T10:18:36.318Z,-1.80
2022-12-13T10:21:09.887Z,-1.70
2022-12-13T10:24:06.807Z,-1.70
2022-12-13T10:26:28.836Z,-1.60
2022-12-13T10:29:04.613Z,-1.50
2022-12-13T10:31:44.182Z,-1.50
2022-12-13T10:34:27.464Z,-1.40
2022-12-13T10:36:54.486Z,-1.40
2022-12-13T10:39:39.654Z,-1.40
2022-12-13T10:42:14.386Z,-1.30
2022-12-13T10:45:10.529Z,-1.30
2022-12-13T10:47:37.633Z,-0.90
2022-12-13T10:50:05.257Z,-1.10
2022-12-13T10:52:43.520Z,-1.10
2022-12-13T10:55:35.058Z,-1.00
2022-12-13T10:58:07.691Z,-1.00
2022-12-13T11:00:41.268Z,-1.00
2022-12-13T11:03:12.614Z,-0.70
2022-12-13T11:05:40.651Z,-0.90
2022-12-13T11:08:16.725Z,-0.90
2022-12-13T11:10:43.920Z,-0.80
2022-12-13T11:13:25.634Z,-0.20
2022-12-13T11:15:57.062Z,-0.70
2022-12-13T11:18:27.117Z,-0.70
2022-12-13T11:21:01.307Z,-0.70
2022-12-13T11:23:29.977Z,-0.60
2022-12-13T11:26:00.677Z,-0.60
2022-12-13T11:28:45.134Z,-0.60
2022-12-13T11:31:31.704Z,-0.50
2022-12-13T11:34:19.330Z,-0.50
2022-12-13T11:37:10.404Z,-0.50
2022-12-13T11:39:45.247Z,-0.60
2022-12-13T11:42:35.585Z,-0.40
2022-12-13T11:45:13.468Z,-0.40
2022-12-13T11:48:06.351Z,-0.40
2022-12-13T11:50:47.325Z,-0.40
2022-12-13T11:53:36.000Z,-0.30
2022-12-13T11:56:11.714Z,-0.30
2022-12-13T11:59:03.142Z,-0.30
2022-12-13T12:01:47.745Z,-0.20
2022-12-13T12:04:37.690Z,-0.20
2022-12-13T12:07:35.695Z,-0.20
2022-12-13T12:10:14.566Z,-0.20
2022-12-13T12:12:45.905Z,-0.10
2022-12-13T12:15:26.534Z,-0.10
2022-12-13T12:17:55.954Z,-0.10
2022-12-13T12:20:47.721Z,-0.10
2022-12-13T12:23:20.889Z,-0.10
2022-12-13T12:25:57.806Z,0.00
2022-12-13T12:28:34.629Z,0.00
2022-12-13T12:31:19.971Z,0.00
2022-12-13T12:33:54.624Z,0.00
2022-12-13T12:37:03.223Z,0.00
2022-12-13T12:39:34.686Z,0.10
2022-12-13T12:42:27.844Z,0.10
2022-12-13T12:45:55.233Z,0.10
2022-12-13T12:51:44.389Z,0.10
2022-12-13T12:54:14.242Z,0.10
2022-12-13T12:57:15.355Z,0.10
2022-12-13T13:00:01.492Z,0.10
2022-12-13T13:03:13.624Z,0.10
2022-12-13T13:06:02.688Z,0.10
2022-12-13T13:08:55.244Z,0.20
2022-12-13T13:11:26.024Z,0.20
2022-12-13T13:14:01.886Z,0.40
2022-12-13T13:16:35.914Z,0.40
2022-12-13T13:19:11.423Z,0.20
2022-12-13T13:21:48.111Z,0.20
2022-12-13T13:24:18.735Z,0.20
2022-12-13T13:26:54.085Z,0.20
2022-12-13T13:29:26.611Z,0.20
2022-12-13T13:32:11.121Z,0.20
2022-12-13T13:34:42.533Z,0.30
2022-12-13T13:37:23.123Z,0.20
2022-12-13T13:40:00.238Z,0.30
2022-12-13T13:42:32.057Z,0.30
2022-12-13T13:45:19.371Z,0.30
2022-12-13T13:48:15.034Z,0.20
2022-12-13T13:51:07.659Z,0.20
2022-12-13T13:54:09.009Z,0.20
2022-12-13T16:14:54.545Z,-1.00
2022-12-13T17:57:35.107Z,-1.70
2022-12-13T18:00:04.068Z,-1.80
2022-12-13T18:02:31.380Z,-1.70
2022-12-13T18:04:58.619Z,-1.80
2022-12-13T18:07:25.792Z,-1.70
2022-12-13T18:09:53.197Z,-1.60
2022-12-13T18:12:20.474Z,-1.80
2022-12-13T18:14:47.726Z,-1.80
2022-12-13T18:17:15.564Z,-1.60
2022-12-13T18:19:43.158Z,-1.90
2022-12-13T18:22:12.275Z,-1.60
2022-12-13T18:24:43.395Z,-2.30
2022-12-13T18:27:11.299Z,-1.90
2022-12-13T18:29:54.955Z,-1.90
2022-12-13T19:24:34.897Z,-2.40
2022-12-13T19:27:02.425Z,-2.50
2022-12-13T19:29:34.567Z,-2.50
2022-12-13T23:55:39.307Z,-3.60
2022-12-13T23:58:06.414Z,-3.40
